Airfield :
LOGIN :

Register | Disclaimer

   EN    FR    IT 

 










Legend :    VFR   Marginal VFR   IFR   Intensive IFR   Very Intensive IFR
Visi :
Ceiling :
>= 8 km
>= 3000ft
5 to 8 km
1000 to 3000 ft
1500m to 5 km
500 to 1000 ft
800 to 1500m
200 to 500 ft
< 800m
< 200 ft
Symbols :   Thunderstorms  Fog  Heavy snow  Heavy precipitations  Wind > 20 kt
SIGMETs :     Misc.  Thunderstorms  Icing  Turbulence  Mountain Waves  Volcanic Ashes






- Airport Elevation : 510 ft


LJCE - Cerklje

CURRENT METAR :
  • 281200Z 06004KT 010V120 9999 FEW047 25/12 Q1020 RMK BLU

EXPIRED METARs :
  • 281130Z VRB02KT 9999 FEW040 25/13 Q1020 RMK BLU
  • 281100Z 00000KT 9999 FEW033 24/15 Q1020 RMK BLU
  • 281030Z VRB02KT 9999 FEW030 23/15 Q1020 RMK BLU
  • 281000Z 17001KT CAVOK 22/16 Q1021 RMK BLU
  • 280930Z 17001KT CAVOK 21/16 Q1021 RMK BLU

TAF TAF LJCE
Valid from the 28 at 12:00 until the 28 at 21:00 UTC


281100Z 2812/2821 VRB02KT CAVOK



MET'MAP, your aeronautical weather chart ! - Copyright ORBIFLY December 2007 - Disclaimer

ORBIFLY MET'MAP TEAM :

Programming & Development : Alexandra Zaïnal
Concept & original design : Baudouin d'Aumeries
Assistance for programming : Marc-Olivier Méhu
Technical & hardware support : Manuel Goepfert

Contact : metmap@orbifly.com




SOURCES & CREDITS :

   NOAA